sensor_id;sensor_type;location;lat;lon;timestamp;P1;durP1;ratioP1;P2;durP2;ratioP2
16957;SDS011;8595;52.542;11.974;2023-11-21T00:01:03;26.70;;;11.90;;
16957;SDS011;8595;52.542;11.974;2023-11-21T00:03:33;30.33;;;13.23;;
16957;SDS011;8595;52.542;11.974;2023-11-21T00:06:00;41.33;;;17.17;;
16957;SDS011;8595;52.542;11.974;2023-11-21T00:08:27;29.67;;;11.67;;
16957;SDS011;8595;52.542;11.974;2023-11-21T00:10:54;30.87;;;11.63;;
16957;SDS011;8595;52.542;11.974;2023-11-21T00:13:21;30.58;;;14.50;;
16957;SDS011;8595;52.542;11.974;2023-11-21T00:15:48;25.30;;;12.53;;
16957;SDS011;8595;52.542;11.974;2023-11-21T00:18:16;28.35;;;14.00;;
16957;SDS011;8595;52.542;11.974;2023-11-21T00:20:43;24.27;;;10.90;;
16957;SDS011;8595;52.542;11.974;2023-11-21T00:23:09;21.55;;;10.55;;
16957;SDS011;8595;52.542;11.974;2023-11-21T00:25:36;23.98;;;10.65;;
16957;SDS011;8595;52.542;11.974;2023-11-21T00:28:03;23.00;;;10.30;;
16957;SDS011;8595;52.542;11.974;2023-11-21T00:30:30;19.08;;;10.50;;
16957;SDS011;8595;52.542;11.974;2023-11-21T00:32:59;22.07;;;11.30;;
16957;SDS011;8595;52.542;11.974;2023-11-21T00:35:27;20.30;;;9.43;;
16957;SDS011;8595;52.542;11.974;2023-11-21T00:37:54;19.73;;;9.27;;
16957;SDS011;8595;52.542;11.974;2023-11-21T00:40:21;14.90;;;9.27;;
16957;SDS011;8595;52.542;11.974;2023-11-21T00:42:48;12.27;;;8.80;;
16957;SDS011;8595;52.542;11.974;2023-11-21T00:45:14;18.35;;;8.65;;
16957;SDS011;8595;52.542;11.974;2023-11-21T00:47:41;15.73;;;7.85;;
16957;SDS011;8595;52.542;11.974;2023-11-21T00:50:08;12.45;;;7.28;;
16957;SDS011;8595;52.542;11.974;2023-11-21T00:52:37;11.90;;;6.68;;
16957;SDS011;8595;52.542;11.974;2023-11-21T00:55:04;8.57;;;5.77;;
16957;SDS011;8595;52.542;11.974;2023-11-21T00:57:32;13.33;;;6.47;;
16957;SDS011;8595;52.542;11.974;2023-11-21T00:59:59;7.55;;;6.07;;
16957;SDS011;8595;52.542;11.974;2023-11-21T01:02:26;10.80;;;6.22;;
16957;SDS011;8595;52.542;11.974;2023-11-21T01:04:52;9.23;;;6.55;;
16957;SDS011;8595;52.542;11.974;2023-11-21T01:07:19;8.80;;;5.37;;
16957;SDS011;8595;52.542;11.974;2023-11-21T01:09:47;10.25;;;5.18;;
16957;SDS011;8595;52.542;11.974;2023-11-21T01:12:14;8.52;;;5.53;;
16957;SDS011;8595;52.542;11.974;2023-11-21T01:14:42;6.97;;;4.20;;
16957;SDS011;8595;52.542;11.974;2023-11-21T01:17:10;8.30;;;5.10;;
16957;SDS011;8595;52.542;11.974;2023-11-21T01:19:36;6.10;;;4.57;;
16957;SDS011;8595;52.542;11.974;2023-11-21T01:22:03;7.03;;;4.73;;
16957;SDS011;8595;52.542;11.974;2023-11-21T01:24:30;5.20;;;4.15;;
16957;SDS011;8595;52.542;11.974;2023-11-21T01:26:58;6.32;;;4.90;;
16957;SDS011;8595;52.542;11.974;2023-11-21T01:29:25;8.50;;;5.87;;
16957;SDS011;8595;52.542;11.974;2023-11-21T01:31:52;7.70;;;6.20;;
16957;SDS011;8595;52.542;11.974;2023-11-21T01:34:19;9.57;;;6.30;;
16957;SDS011;8595;52.542;11.974;2023-11-21T01:36:46;9.75;;;7.53;;
16957;SDS011;8595;52.542;11.974;2023-11-21T01:39:13;12.43;;;8.10;;
16957;SDS011;8595;52.542;11.974;2023-11-21T01:41:42;11.53;;;7.57;;
16957;SDS011;8595;52.542;11.974;2023-11-21T01:44:11;14.23;;;7.75;;
16957;SDS011;8595;52.542;11.974;2023-11-21T01:46:38;14.73;;;8.98;;
16957;SDS011;8595;52.542;11.974;2023-11-21T01:49:05;16.40;;;8.73;;
16957;SDS011;8595;52.542;11.974;2023-11-21T01:51:32;18.80;;;10.67;;
16957;SDS011;8595;52.542;11.974;2023-11-21T01:53:59;18.23;;;11.53;;
16957;SDS011;8595;52.542;11.974;2023-11-21T01:56:26;21.27;;;10.60;;
16957;SDS011;8595;52.542;11.974;2023-11-21T01:58:56;15.10;;;10.27;;
16957;SDS011;8595;52.542;11.974;2023-11-21T02:01:24;17.47;;;10.47;;
16957;SDS011;8595;52.542;11.974;2023-11-21T02:03:51;22.48;;;13.13;;
16957;SDS011;8595;52.542;11.974;2023-11-21T02:06:18;23.40;;;14.00;;
16957;SDS011;8595;52.542;11.974;2023-11-21T02:08:45;31.53;;;15.90;;
16957;SDS011;8595;52.542;11.974;2023-11-21T02:11:11;29.30;;;15.90;;
16957;SDS011;8595;52.542;11.974;2023-11-21T02:13:38;28.13;;;16.13;;
16957;SDS011;8595;52.542;11.974;2023-11-21T02:16:08;28.60;;;16.50;;
16957;SDS011;8595;52.542;11.974;2023-11-21T02:18:37;31.07;;;18.73;;
16957;SDS011;8595;52.542;11.974;2023-11-21T02:21:04;32.40;;;15.87;;
16957;SDS011;8595;52.542;11.974;2023-11-21T02:23:32;31.90;;;16.40;;
16957;SDS011;8595;52.542;11.974;2023-11-21T02:25:59;32.13;;;17.23;;
16957;SDS011;8595;52.542;11.974;2023-11-21T02:28:29;32.75;;;15.00;;
16957;SDS011;8595;52.542;11.974;2023-11-21T02:30:56;30.33;;;16.87;;
16957;SDS011;8595;52.542;11.974;2023-11-21T02:33:24;31.97;;;14.90;;
16957;SDS011;8595;52.542;11.974;2023-11-21T02:35:50;32.13;;;17.10;;
16957;SDS011;8595;52.542;11.974;2023-11-21T02:38:19;27.30;;;14.07;;
16957;SDS011;8595;52.542;11.974;2023-11-21T02:40:48;32.88;;;16.75;;
16957;SDS011;8595;52.542;11.974;2023-11-21T02:43:15;27.07;;;15.17;;
16957;SDS011;8595;52.542;11.974;2023-11-21T02:45:41;28.33;;;15.00;;
16957;SDS011;8595;52.542;11.974;2023-11-21T02:48:08;23.60;;;14.20;;
16957;SDS011;8595;52.542;11.974;2023-11-21T02:50:35;21.13;;;13.70;;
16957;SDS011;8595;52.542;11.974;2023-11-21T02:53:02;21.07;;;13.37;;
16957;SDS011;8595;52.542;11.974;2023-11-21T02:55:30;19.13;;;12.47;;
16957;SDS011;8595;52.542;11.974;2023-11-21T02:58:01;17.30;;;11.87;;
16957;SDS011;8595;52.542;11.974;2023-11-21T03:00:28;23.17;;;15.03;;
16957;SDS011;8595;52.542;11.974;2023-11-21T03:02:55;27.13;;;15.37;;
16957;SDS011;8595;52.542;11.974;2023-11-21T03:05:22;23.27;;;15.33;;
16957;SDS011;8595;52.542;11.974;2023-11-21T03:07:49;26.33;;;17.13;;
16957;SDS011;8595;52.542;11.974;2023-11-21T03:10:15;32.47;;;18.20;;
16957;SDS011;8595;52.542;11.974;2023-11-21T03:12:42;30.63;;;16.53;;
16957;SDS011;8595;52.542;11.974;2023-11-21T03:15:11;23.63;;;14.57;;
16957;SDS011;8595;52.542;11.974;2023-11-21T03:17:37;25.77;;;16.53;;
16957;SDS011;8595;52.542;11.974;2023-11-21T03:20:05;28.80;;;17.67;;
16957;SDS011;8595;52.542;11.974;2023-11-21T03:22:35;27.03;;;17.00;;
16957;SDS011;8595;52.542;11.974;2023-11-21T03:25:02;27.63;;;17.40;;
16957;SDS011;8595;52.542;11.974;2023-11-21T03:27:29;40.87;;;17.13;;
16957;SDS011;8595;52.542;11.974;2023-11-21T03:29:56;26.57;;;17.20;;
16957;SDS011;8595;52.542;11.974;2023-11-21T03:32:24;23.90;;;15.93;;
16957;SDS011;8595;52.542;11.974;2023-11-21T03:34:54;24.60;;;16.47;;
16957;SDS011;8595;52.542;11.974;2023-11-21T03:37:22;26.87;;;17.57;;
16957;SDS011;8595;52.542;11.974;2023-11-21T03:39:49;25.83;;;16.77;;
16957;SDS011;8595;52.542;11.974;2023-11-21T03:42:16;23.10;;;15.70;;
16957;SDS011;8595;52.542;11.974;2023-11-21T03:44:43;23.60;;;15.70;;
16957;SDS011;8595;52.542;11.974;2023-11-21T03:47:10;22.13;;;15.80;;
16957;SDS011;8595;52.542;11.974;2023-11-21T03:49:38;28.43;;;16.97;;
16957;SDS011;8595;52.542;11.974;2023-11-21T03:52:05;28.43;;;17.73;;
16957;SDS011;8595;52.542;11.974;2023-11-21T03:54:34;24.70;;;17.30;;
16957;SDS011;8595;52.542;11.974;2023-11-21T03:57:01;29.63;;;18.53;;
16957;SDS011;8595;52.542;11.974;2023-11-21T03:59:27;27.53;;;18.73;;
16957;SDS011;8595;52.542;11.974;2023-11-21T04:01:55;28.60;;;17.58;;
16957;SDS011;8595;52.542;11.974;2023-11-21T04:04:22;27.10;;;17.53;;
16957;SDS011;8595;52.542;11.974;2023-11-21T04:06:50;29.10;;;19.27;;
16957;SDS011;8595;52.542;11.974;2023-11-21T04:09:17;27.43;;;17.67;;
16957;SDS011;8595;52.542;11.974;2023-11-21T04:11:44;26.20;;;18.93;;
16957;SDS011;8595;52.542;11.974;2023-11-21T04:14:11;25.17;;;17.83;;
16957;SDS011;8595;52.542;11.974;2023-11-21T04:16:38;28.30;;;17.93;;
16957;SDS011;8595;52.542;11.974;2023-11-21T04:19:04;28.20;;;18.67;;
16957;SDS011;8595;52.542;11.974;2023-11-21T04:21:31;26.00;;;17.33;;
16957;SDS011;8595;52.542;11.974;2023-11-21T04:23:59;22.10;;;16.53;;
16957;SDS011;8595;52.542;11.974;2023-11-21T04:26:27;26.63;;;18.97;;
16957;SDS011;8595;52.542;11.974;2023-11-21T04:28:54;23.67;;;16.07;;
16957;SDS011;8595;52.542;11.974;2023-11-21T04:31:20;23.30;;;16.27;;
16957;SDS011;8595;52.542;11.974;2023-11-21T04:33:47;28.57;;;18.80;;
16957;SDS011;8595;52.542;11.974;2023-11-21T04:36:14;18.83;;;14.43;;
16957;SDS011;8595;52.542;11.974;2023-11-21T04:38:40;22.97;;;16.00;;
16957;SDS011;8595;52.542;11.974;2023-11-21T04:41:08;21.40;;;14.57;;
16957;SDS011;8595;52.542;11.974;2023-11-21T04:43:35;23.47;;;17.53;;
16957;SDS011;8595;52.542;11.974;2023-11-21T04:46:02;24.00;;;14.70;;
16957;SDS011;8595;52.542;11.974;2023-11-21T04:48:29;20.67;;;16.13;;
16957;SDS011;8595;52.542;11.974;2023-11-21T04:50:55;20.17;;;13.60;;
16957;SDS011;8595;52.542;11.974;2023-11-21T04:53:22;21.17;;;16.17;;
16957;SDS011;8595;52.542;11.974;2023-11-21T04:55:49;25.57;;;17.57;;
16957;SDS011;8595;52.542;11.974;2023-11-21T04:58:17;20.97;;;14.20;;
16957;SDS011;8595;52.542;11.974;2023-11-21T05:00:45;22.90;;;17.00;;
16957;SDS011;8595;52.542;11.974;2023-11-21T05:03:12;23.13;;;14.87;;
16957;SDS011;8595;52.542;11.974;2023-11-21T05:05:39;21.17;;;16.07;;
16957;SDS011;8595;52.542;11.974;2023-11-21T05:08:05;21.53;;;15.90;;
16957;SDS011;8595;52.542;11.974;2023-11-21T05:10:33;20.03;;;15.47;;
16957;SDS011;8595;52.542;11.974;2023-11-21T05:13:03;23.57;;;15.83;;
16957;SDS011;8595;52.542;11.974;2023-11-21T05:15:31;23.73;;;16.00;;
16957;SDS011;8595;52.542;11.974;2023-11-21T05:17:58;24.90;;;17.87;;
16957;SDS011;8595;52.542;11.974;2023-11-21T05:20:25;21.70;;;15.53;;
16957;SDS011;8595;52.542;11.974;2023-11-21T05:22:51;19.80;;;14.47;;
16957;SDS011;8595;52.542;11.974;2023-11-21T05:25:18;24.53;;;15.63;;
16957;SDS011;8595;52.542;11.974;2023-11-21T05:27:45;22.10;;;16.20;;
16957;SDS011;8595;52.542;11.974;2023-11-21T05:30:13;23.13;;;15.27;;
16957;SDS011;8595;52.542;11.974;2023-11-21T05:32:41;19.63;;;14.10;;
16957;SDS011;8595;52.542;11.974;2023-11-21T05:35:08;21.20;;;15.67;;
16957;SDS011;8595;52.542;11.974;2023-11-21T05:37:39;26.00;;;16.73;;
16957;SDS011;8595;52.542;11.974;2023-11-21T05:40:06;20.50;;;14.40;;
16957;SDS011;8595;52.542;11.974;2023-11-21T05:42:34;23.17;;;15.93;;
16957;SDS011;8595;52.542;11.974;2023-11-21T05:45:01;22.97;;;16.67;;
16957;SDS011;8595;52.542;11.974;2023-11-21T05:47:35;22.87;;;14.70;;
16957;SDS011;8595;52.542;11.974;2023-11-21T05:50:04;21.80;;;14.23;;
16957;SDS011;8595;52.542;11.974;2023-11-21T05:52:35;22.27;;;14.53;;
16957;SDS011;8595;52.542;11.974;2023-11-21T05:55:02;22.30;;;14.73;;
16957;SDS011;8595;52.542;11.974;2023-11-21T05:57:29;20.97;;;14.37;;
16957;SDS011;8595;52.542;11.974;2023-11-21T05:59:56;21.37;;;14.47;;
16957;SDS011;8595;52.542;11.974;2023-11-21T06:02:23;20.83;;;12.57;;
16957;SDS011;8595;52.542;11.974;2023-11-21T06:04:50;20.37;;;13.67;;
16957;SDS011;8595;52.542;11.974;2023-11-21T06:07:18;17.90;;;14.43;;
16957;SDS011;8595;52.542;11.974;2023-11-21T06:09:45;20.90;;;15.97;;
16957;SDS011;8595;52.542;11.974;2023-11-21T06:12:13;20.47;;;13.87;;
16957;SDS011;8595;52.542;11.974;2023-11-21T06:14:41;21.87;;;14.70;;
16957;SDS011;8595;52.542;11.974;2023-11-21T06:17:07;17.80;;;12.50;;
16957;SDS011;8595;52.542;11.974;2023-11-21T06:19:37;19.50;;;13.33;;
16957;SDS011;8595;52.542;11.974;2023-11-21T06:22:05;20.40;;;14.13;;
16957;SDS011;8595;52.542;11.974;2023-11-21T06:24:34;18.90;;;13.27;;
16957;SDS011;8595;52.542;11.974;2023-11-21T06:27:04;23.07;;;13.67;;
16957;SDS011;8595;52.542;11.974;2023-11-21T06:29:31;17.40;;;13.03;;
16957;SDS011;8595;52.542;11.974;2023-11-21T06:31:58;18.93;;;13.97;;
16957;SDS011;8595;52.542;11.974;2023-11-21T06:34:24;16.70;;;12.30;;
16957;SDS011;8595;52.542;11.974;2023-11-21T06:36:52;17.17;;;12.63;;
16957;SDS011;8595;52.542;11.974;2023-11-21T06:39:19;15.90;;;12.77;;
16957;SDS011;8595;52.542;11.974;2023-11-21T06:41:48;16.83;;;12.30;;
16957;SDS011;8595;52.542;11.974;2023-11-21T06:44:15;17.80;;;14.03;;
16957;SDS011;8595;52.542;11.974;2023-11-21T06:46:42;17.20;;;13.80;;
16957;SDS011;8595;52.542;11.974;2023-11-21T06:49:09;16.90;;;12.47;;
16957;SDS011;8595;52.542;11.974;2023-11-21T06:51:37;16.40;;;12.37;;
16957;SDS011;8595;52.542;11.974;2023-11-21T06:57:27;15.40;;;11.10;;
16957;SDS011;8595;52.542;11.974;2023-11-21T06:59:54;17.37;;;13.33;;
16957;SDS011;8595;52.542;11.974;2023-11-21T07:02:22;14.80;;;11.83;;
16957;SDS011;8595;52.542;11.974;2023-11-21T07:04:49;19.77;;;13.93;;
16957;SDS011;8595;52.542;11.974;2023-11-21T07:07:15;15.60;;;10.87;;
16957;SDS011;8595;52.542;11.974;2023-11-21T07:09:42;17.27;;;11.13;;
16957;SDS011;8595;52.542;11.974;2023-11-21T07:12:09;15.07;;;11.73;;
16957;SDS011;8595;52.542;11.974;2023-11-21T07:14:37;13.67;;;9.87;;
16957;SDS011;8595;52.542;11.974;2023-11-21T07:17:06;15.17;;;10.43;;
16957;SDS011;8595;52.542;11.974;2023-11-21T07:19:32;14.80;;;10.90;;
16957;SDS011;8595;52.542;11.974;2023-11-21T07:21:59;15.33;;;11.10;;
16957;SDS011;8595;52.542;11.974;2023-11-21T07:24:26;15.60;;;11.80;;
16957;SDS011;8595;52.542;11.974;2023-11-21T07:26:52;14.40;;;10.30;;
16957;SDS011;8595;52.542;11.974;2023-11-21T07:29:21;14.50;;;11.40;;
16957;SDS011;8595;52.542;11.974;2023-11-21T07:31:51;17.53;;;12.07;;
16957;SDS011;8595;52.542;11.974;2023-11-21T07:34:19;13.00;;;10.37;;
16957;SDS011;8595;52.542;11.974;2023-11-21T07:36:45;16.90;;;12.40;;
16957;SDS011;8595;52.542;11.974;2023-11-21T07:39:12;22.80;;;14.03;;
16957;SDS011;8595;52.542;11.974;2023-11-21T07:41:40;19.80;;;14.70;;
16957;SDS011;8595;52.542;11.974;2023-11-21T07:44:13;18.10;;;13.60;;
16957;SDS011;8595;52.542;11.974;2023-11-21T07:46:40;19.33;;;13.33;;
16957;SDS011;8595;52.542;11.974;2023-11-21T07:49:08;23.03;;;16.30;;
16957;SDS011;8595;52.542;11.974;2023-11-21T07:51:35;20.10;;;15.70;;
16957;SDS011;8595;52.542;11.974;2023-11-21T07:54:02;18.43;;;13.23;;
16957;SDS011;8595;52.542;11.974;2023-11-21T07:56:29;16.00;;;12.57;;
16957;SDS011;8595;52.542;11.974;2023-11-21T07:58:55;15.40;;;12.87;;
16957;SDS011;8595;52.542;11.974;2023-11-21T08:01:22;17.23;;;14.70;;
16957;SDS011;8595;52.542;11.974;2023-11-21T08:03:49;14.57;;;10.43;;
16957;SDS011;8595;52.542;11.974;2023-11-21T08:06:18;12.97;;;10.23;;
16957;SDS011;8595;52.542;11.974;2023-11-21T08:08:45;13.10;;;11.07;;
16957;SDS011;8595;52.542;11.974;2023-11-21T08:11:12;15.77;;;11.13;;
16957;SDS011;8595;52.542;11.974;2023-11-21T08:13:39;12.87;;;10.20;;
16957;SDS011;8595;52.542;11.974;2023-11-21T08:16:06;14.23;;;10.67;;
16957;SDS011;8595;52.542;11.974;2023-11-21T08:18:33;14.37;;;10.43;;
16957;SDS011;8595;52.542;11.974;2023-11-21T08:21:00;13.27;;;10.53;;
16957;SDS011;8595;52.542;11.974;2023-11-21T08:23:29;12.93;;;10.57;;
16957;SDS011;8595;52.542;11.974;2023-11-21T08:25:56;14.67;;;10.77;;
16957;SDS011;8595;52.542;11.974;2023-11-21T08:28:22;14.37;;;10.10;;
16957;SDS011;8595;52.542;11.974;2023-11-21T08:30:51;14.10;;;10.67;;
16957;SDS011;8595;52.542;11.974;2023-11-21T08:33:17;16.13;;;12.77;;
16957;SDS011;8595;52.542;11.974;2023-11-21T08:35:44;14.73;;;11.00;;
16957;SDS011;8595;52.542;11.974;2023-11-21T08:38:11;13.10;;;10.17;;
16957;SDS011;8595;52.542;11.974;2023-11-21T08:40:40;12.80;;;10.00;;
16957;SDS011;8595;52.542;11.974;2023-11-21T08:43:07;13.70;;;10.10;;
16957;SDS011;8595;52.542;11.974;2023-11-21T08:45:34;12.47;;;9.60;;
16957;SDS011;8595;52.542;11.974;2023-11-21T08:48:00;13.87;;;10.20;;
16957;SDS011;8595;52.542;11.974;2023-11-21T08:50:27;13.53;;;10.37;;
16957;SDS011;8595;52.542;11.974;2023-11-21T08:52:54;14.63;;;10.90;;
16957;SDS011;8595;52.542;11.974;2023-11-21T08:55:21;15.37;;;10.77;;
16957;SDS011;8595;52.542;11.974;2023-11-21T08:57:49;13.73;;;10.63;;
16957;SDS011;8595;52.542;11.974;2023-11-21T09:00:16;16.00;;;11.77;;
16957;SDS011;8595;52.542;11.974;2023-11-21T09:02:43;14.27;;;11.03;;
16957;SDS011;8595;52.542;11.974;2023-11-21T09:05:11;16.23;;;11.87;;
16957;SDS011;8595;52.542;11.974;2023-11-21T09:07:39;15.13;;;11.10;;
16957;SDS011;8595;52.542;11.974;2023-11-21T09:10:07;14.80;;;11.13;;
16957;SDS011;8595;52.542;11.974;2023-11-21T09:12:35;17.70;;;12.27;;
16957;SDS011;8595;52.542;11.974;2023-11-21T09:15:04;16.00;;;12.47;;
16957;SDS011;8595;52.542;11.974;2023-11-21T09:17:32;14.90;;;11.50;;
16957;SDS011;8595;52.542;11.974;2023-11-21T09:20:00;16.53;;;11.47;;
16957;SDS011;8595;52.542;11.974;2023-11-21T09:22:28;17.00;;;13.10;;
16957;SDS011;8595;52.542;11.974;2023-11-21T09:24:56;17.97;;;12.53;;
16957;SDS011;8595;52.542;11.974;2023-11-21T09:27:23;18.53;;;12.53;;
16957;SDS011;8595;52.542;11.974;2023-11-21T09:29:50;15.87;;;11.43;;
16957;SDS011;8595;52.542;11.974;2023-11-21T09:32:19;13.93;;;11.50;;
16957;SDS011;8595;52.542;11.974;2023-11-21T09:34:47;20.33;;;12.87;;
16957;SDS011;8595;52.542;11.974;2023-11-21T09:37:14;17.73;;;12.53;;
16957;SDS011;8595;52.542;11.974;2023-11-21T09:39:40;15.77;;;13.33;;
16957;SDS011;8595;52.542;11.974;2023-11-21T09:42:08;15.40;;;12.53;;
16957;SDS011;8595;52.542;11.974;2023-11-21T09:44:42;15.80;;;12.60;;
16957;SDS011;8595;52.542;11.974;2023-11-21T09:47:14;17.63;;;11.73;;
16957;SDS011;8595;52.542;11.974;2023-11-21T09:49:43;18.60;;;12.10;;
16957;SDS011;8595;52.542;11.974;2023-11-21T09:52:15;13.90;;;11.40;;
16957;SDS011;8595;52.542;11.974;2023-11-21T09:54:50;17.37;;;12.20;;
16957;SDS011;8595;52.542;11.974;2023-11-21T09:57:18;16.53;;;11.70;;
16957;SDS011;8595;52.542;11.974;2023-11-21T09:59:46;18.90;;;11.53;;
16957;SDS011;8595;52.542;11.974;2023-11-21T10:02:16;18.17;;;12.77;;
16957;SDS011;8595;52.542;11.974;2023-11-21T10:04:47;17.93;;;13.37;;
16957;SDS011;8595;52.542;11.974;2023-11-21T10:07:14;15.93;;;12.07;;
16957;SDS011;8595;52.542;11.974;2023-11-21T10:09:44;18.53;;;12.00;;
16957;SDS011;8595;52.542;11.974;2023-11-21T10:12:11;17.47;;;11.87;;
16957;SDS011;8595;52.542;11.974;2023-11-21T10:14:41;16.30;;;11.03;;
16957;SDS011;8595;52.542;11.974;2023-11-21T10:17:09;16.50;;;11.60;;
16957;SDS011;8595;52.542;11.974;2023-11-21T10:19:38;15.63;;;11.80;;
16957;SDS011;8595;52.542;11.974;2023-11-21T10:22:06;17.73;;;11.73;;
16957;SDS011;8595;52.542;11.974;2023-11-21T10:24:34;17.60;;;12.03;;
16957;SDS011;8595;52.542;11.974;2023-11-21T10:27:01;15.80;;;11.00;;
16957;SDS011;8595;52.542;11.974;2023-11-21T10:29:29;13.93;;;11.80;;
16957;SDS011;8595;52.542;11.974;2023-11-21T10:31:58;14.33;;;10.77;;
16957;SDS011;8595;52.542;11.974;2023-11-21T10:34:25;15.30;;;11.50;;
16957;SDS011;8595;52.542;11.974;2023-11-21T10:36:52;16.83;;;11.77;;
16957;SDS011;8595;52.542;11.974;2023-11-21T10:39:24;14.93;;;11.37;;
16957;SDS011;8595;52.542;11.974;2023-11-21T10:41:55;16.50;;;12.00;;
16957;SDS011;8595;52.542;11.974;2023-11-21T10:44:22;19.03;;;12.67;;
16957;SDS011;8595;52.542;11.974;2023-11-21T10:46:50;17.00;;;12.50;;
16957;SDS011;8595;52.542;11.974;2023-11-21T10:49:21;15.60;;;11.17;;
16957;SDS011;8595;52.542;11.974;2023-11-21T10:51:50;16.73;;;11.60;;
16957;SDS011;8595;52.542;11.974;2023-11-21T10:54:18;14.97;;;11.67;;
16957;SDS011;8595;52.542;11.974;2023-11-21T10:56:48;18.90;;;12.90;;
16957;SDS011;8595;52.542;11.974;2023-11-21T10:59:17;15.03;;;11.67;;
16957;SDS011;8595;52.542;11.974;2023-11-21T11:01:46;33.03;;;19.13;;
16957;SDS011;8595;52.542;11.974;2023-11-21T11:04:14;29.03;;;17.37;;
16957;SDS011;8595;52.542;11.974;2023-11-21T11:06:44;23.40;;;15.40;;
16957;SDS011;8595;52.542;11.974;2023-11-21T11:09:12;21.50;;;14.63;;
16957;SDS011;8595;52.542;11.974;2023-11-21T11:11:41;20.97;;;15.03;;
16957;SDS011;8595;52.542;11.974;2023-11-21T11:14:11;17.47;;;13.87;;
16957;SDS011;8595;52.542;11.974;2023-11-21T11:16:39;19.77;;;13.53;;
16957;SDS011;8595;52.542;11.974;2023-11-21T11:19:08;14.90;;;10.20;;
16957;SDS011;8595;52.542;11.974;2023-11-21T11:21:37;16.43;;;12.00;;
16957;SDS011;8595;52.542;11.974;2023-11-21T11:24:17;15.40;;;11.30;;
16957;SDS011;8595;52.542;11.974;2023-11-21T11:26:56;14.33;;;11.97;;
16957;SDS011;8595;52.542;11.974;2023-11-21T11:29:30;17.00;;;10.10;;
16957;SDS011;8595;52.542;11.974;2023-11-21T11:32:04;11.63;;;9.57;;
16957;SDS011;8595;52.542;11.974;2023-11-21T11:34:39;11.73;;;9.07;;
16957;SDS011;8595;52.542;11.974;2023-11-21T11:37:11;9.57;;;8.10;;
16957;SDS011;8595;52.542;11.974;2023-11-21T11:39:39;10.57;;;8.37;;
16957;SDS011;8595;52.542;11.974;2023-11-21T11:42:08;8.57;;;6.77;;
16957;SDS011;8595;52.542;11.974;2023-11-21T11:44:52;12.33;;;6.13;;
16957;SDS011;8595;52.542;11.974;2023-11-21T11:47:21;10.30;;;6.90;;
16957;SDS011;8595;52.542;11.974;2023-11-21T11:49:56;9.00;;;6.83;;
16957;SDS011;8595;52.542;11.974;2023-11-21T11:52:37;7.83;;;6.73;;
16957;SDS011;8595;52.542;11.974;2023-11-21T11:55:06;8.50;;;7.13;;
16957;SDS011;8595;52.542;11.974;2023-11-21T11:57:35;10.00;;;7.30;;
16957;SDS011;8595;52.542;11.974;2023-11-21T12:00:11;7.83;;;6.30;;
16957;SDS011;8595;52.542;11.974;2023-11-21T12:02:47;8.10;;;6.07;;
16957;SDS011;8595;52.542;11.974;2023-11-21T12:05:15;8.47;;;7.07;;
16957;SDS011;8595;52.542;11.974;2023-11-21T12:07:43;9.17;;;6.90;;
16957;SDS011;8595;52.542;11.974;2023-11-21T12:10:11;7.60;;;6.43;;
16957;SDS011;8595;52.542;11.974;2023-11-21T12:12:42;8.50;;;6.23;;
16957;SDS011;8595;52.542;11.974;2023-11-21T12:15:12;8.80;;;7.63;;
16957;SDS011;8595;52.542;11.974;2023-11-21T12:17:39;6.67;;;5.67;;
16957;SDS011;8595;52.542;11.974;2023-11-21T12:20:08;8.17;;;7.03;;
16957;SDS011;8595;52.542;11.974;2023-11-21T12:22:44;6.80;;;5.93;;
16957;SDS011;8595;52.542;11.974;2023-11-21T12:25:15;6.50;;;5.53;;
16957;SDS011;8595;52.542;11.974;2023-11-21T12:27:43;7.30;;;5.90;;
16957;SDS011;8595;52.542;11.974;2023-11-21T12:30:13;10.43;;;7.13;;
16957;SDS011;8595;52.542;11.974;2023-11-21T12:32:40;6.47;;;5.85;;
16957;SDS011;8595;52.542;11.974;2023-11-21T12:35:08;9.13;;;5.57;;
16957;SDS011;8595;52.542;11.974;2023-11-21T12:37:36;6.97;;;6.27;;
16957;SDS011;8595;52.542;11.974;2023-11-21T12:40:03;6.80;;;5.63;;
16957;SDS011;8595;52.542;11.974;2023-11-21T12:42:32;8.37;;;6.87;;
16957;SDS011;8595;52.542;11.974;2023-11-21T12:45:06;6.30;;;5.70;;
16957;SDS011;8595;52.542;11.974;2023-11-21T12:47:40;7.40;;;6.07;;
16957;SDS011;8595;52.542;11.974;2023-11-21T12:50:08;8.23;;;6.47;;
16957;SDS011;8595;52.542;11.974;2023-11-21T12:52:40;6.80;;;5.33;;
16957;SDS011;8595;52.542;11.974;2023-11-21T12:55:09;7.57;;;6.23;;
16957;SDS011;8595;52.542;11.974;2023-11-21T12:57:40;7.57;;;5.90;;
16957;SDS011;8595;52.542;11.974;2023-11-21T13:00:08;8.33;;;5.80;;
16957;SDS011;8595;52.542;11.974;2023-11-21T13:02:53;8.20;;;5.93;;
16957;SDS011;8595;52.542;11.974;2023-11-21T13:05:28;7.70;;;5.67;;
16957;SDS011;8595;52.542;11.974;2023-11-21T13:07:57;10.13;;;6.87;;
16957;SDS011;8595;52.542;11.974;2023-11-21T13:10:25;8.13;;;6.10;;
16957;SDS011;8595;52.542;11.974;2023-11-21T13:12:55;6.93;;;5.80;;
16957;SDS011;8595;52.542;11.974;2023-11-21T13:15:24;6.57;;;5.30;;
16957;SDS011;8595;52.542;11.974;2023-11-21T13:17:53;6.53;;;5.27;;
16957;SDS011;8595;52.542;11.974;2023-11-21T13:20:22;11.47;;;6.20;;
16957;SDS011;8595;52.542;11.974;2023-11-21T13:22:49;7.87;;;6.40;;
16957;SDS011;8595;52.542;11.974;2023-11-21T13:25:19;6.87;;;5.50;;
16957;SDS011;8595;52.542;11.974;2023-11-21T13:27:46;5.90;;;5.30;;
16957;SDS011;8595;52.542;11.974;2023-11-21T13:30:13;8.13;;;5.70;;
16957;SDS011;8595;52.542;11.974;2023-11-21T13:32:41;8.30;;;6.10;;
16957;SDS011;8595;52.542;11.974;2023-11-21T13:35:10;9.27;;;7.03;;
16957;SDS011;8595;52.542;11.974;2023-11-21T13:37:46;9.03;;;6.53;;
16957;SDS011;8595;52.542;11.974;2023-11-21T13:40:16;10.23;;;6.83;;
16957;SDS011;8595;52.542;11.974;2023-11-21T13:42:47;9.53;;;6.67;;
16957;SDS011;8595;52.542;11.974;2023-11-21T13:45:18;9.33;;;6.83;;
16957;SDS011;8595;52.542;11.974;2023-11-21T13:47:46;8.60;;;6.87;;
16957;SDS011;8595;52.542;11.974;2023-11-21T13:50:17;8.93;;;7.00;;
16957;SDS011;8595;52.542;11.974;2023-11-21T13:52:48;9.60;;;7.23;;
16957;SDS011;8595;52.542;11.974;2023-11-21T13:55:16;9.83;;;6.90;;
16957;SDS011;8595;52.542;11.974;2023-11-21T13:57:43;8.20;;;7.03;;
16957;SDS011;8595;52.542;11.974;2023-11-21T14:00:13;7.10;;;6.13;;
16957;SDS011;8595;52.542;11.974;2023-11-21T14:03:01;8.37;;;6.57;;
16957;SDS011;8595;52.542;11.974;2023-11-21T14:05:34;8.03;;;6.17;;
16957;SDS011;8595;52.542;11.974;2023-11-21T14:08:01;7.50;;;6.03;;
16957;SDS011;8595;52.542;11.974;2023-11-21T14:10:29;7.47;;;6.40;;
16957;SDS011;8595;52.542;11.974;2023-11-21T14:13:05;7.00;;;5.30;;
16957;SDS011;8595;52.542;11.974;2023-11-21T14:15:32;9.20;;;5.60;;
16957;SDS011;8595;52.542;11.974;2023-11-21T14:18:03;7.20;;;5.67;;
16957;SDS011;8595;52.542;11.974;2023-11-21T14:20:32;7.63;;;5.53;;
16957;SDS011;8595;52.542;11.974;2023-11-21T14:23:02;7.67;;;5.43;;
16957;SDS011;8595;52.542;11.974;2023-11-21T14:25:29;7.27;;;4.97;;
16957;SDS011;8595;52.542;11.974;2023-11-21T14:27:57;8.27;;;5.97;;
16957;SDS011;8595;52.542;11.974;2023-11-21T14:30:23;8.83;;;5.80;;
16957;SDS011;8595;52.542;11.974;2023-11-21T14:32:51;7.60;;;6.00;;
16957;SDS011;8595;52.542;11.974;2023-11-21T14:35:17;8.80;;;6.30;;
16957;SDS011;8595;52.542;11.974;2023-11-21T14:37:45;12.27;;;6.43;;